sensor_id;sensor_type;location;lat;lon;timestamp;P1;durP1;ratioP1;P2;durP2;ratioP2
40997;SDS011;26740;45.944;12.480;2023-07-29T00:02:21;1.27;;;0.55;;
40997;SDS011;26740;45.944;12.480;2023-07-29T00:04:47;2.65;;;0.40;;
40997;SDS011;26740;45.944;12.480;2023-07-29T00:07:12;1.60;;;0.50;;
40997;SDS011;26740;45.944;12.480;2023-07-29T00:09:38;1.92;;;0.50;;
40997;SDS011;26740;45.944;12.480;2023-07-29T00:12:03;2.00;;;0.70;;
40997;SDS011;26740;45.944;12.480;2023-07-29T00:14:29;1.23;;;0.55;;
40997;SDS011;26740;45.944;12.480;2023-07-29T00:16:54;1.15;;;0.50;;
40997;SDS011;26740;45.944;12.480;2023-07-29T00:19:20;3.80;;;0.55;;
40997;SDS011;26740;45.944;12.480;2023-07-29T00:21:48;2.30;;;0.63;;
40997;SDS011;26740;45.944;12.480;2023-07-29T00:24:13;1.05;;;0.60;;
40997;SDS011;26740;45.944;12.480;2023-07-29T00:26:39;1.15;;;0.60;;
40997;SDS011;26740;45.944;12.480;2023-07-29T00:29:04;2.30;;;1.00;;
40997;SDS011;26740;45.944;12.480;2023-07-29T00:31:30;1.77;;;0.40;;
40997;SDS011;26740;45.944;12.480;2023-07-29T00:33:55;3.22;;;0.60;;
40997;SDS011;26740;45.944;12.480;2023-07-29T00:36:23;1.20;;;0.57;;
40997;SDS011;26740;45.944;12.480;2023-07-29T00:38:48;2.75;;;0.75;;
40997;SDS011;26740;45.944;12.480;2023-07-29T00:41:14;1.65;;;0.40;;
40997;SDS011;26740;45.944;12.480;2023-07-29T00:43:39;3.50;;;0.60;;
40997;SDS011;26740;45.944;12.480;2023-07-29T00:46:05;3.05;;;0.70;;
40997;SDS011;26740;45.944;12.480;2023-07-29T00:48:31;1.92;;;0.80;;
40997;SDS011;26740;45.944;12.480;2023-07-29T00:50:56;3.10;;;1.23;;
40997;SDS011;26740;45.944;12.480;2023-07-29T00:53:22;0.57;;;0.47;;
40997;SDS011;26740;45.944;12.480;2023-07-29T00:55:47;0.93;;;0.50;;
40997;SDS011;26740;45.944;12.480;2023-07-29T00:58:12;1.27;;;0.50;;
40997;SDS011;26740;45.944;12.480;2023-07-29T01:00:38;6.15;;;1.10;;
40997;SDS011;26740;45.944;12.480;2023-07-29T01:03:04;5.13;;;0.70;;
40997;SDS011;26740;45.944;12.480;2023-07-29T01:05:32;2.42;;;1.00;;
40997;SDS011;26740;45.944;12.480;2023-07-29T01:08:13;1.40;;;0.70;;
40997;SDS011;26740;45.944;12.480;2023-07-29T01:13:41;4.85;;;0.60;;
40997;SDS011;26740;45.944;12.480;2023-07-29T01:16:10;0.70;;;0.68;;
40997;SDS011;26740;45.944;12.480;2023-07-29T01:18:36;0.85;;;0.60;;
40997;SDS011;26740;45.944;12.480;2023-07-29T01:21:04;1.00;;;0.60;;
40997;SDS011;26740;45.944;12.480;2023-07-29T01:23:31;1.23;;;0.45;;
40997;SDS011;26740;45.944;12.480;2023-07-29T01:25:57;1.88;;;0.60;;
40997;SDS011;26740;45.944;12.480;2023-07-29T01:28:22;2.30;;;0.70;;
40997;SDS011;26740;45.944;12.480;2023-07-29T01:30:49;3.33;;;0.80;;
40997;SDS011;26740;45.944;12.480;2023-07-29T01:33:18;1.83;;;0.57;;
40997;SDS011;26740;45.944;12.480;2023-07-29T01:35:49;1.48;;;0.50;;
40997;SDS011;26740;45.944;12.480;2023-07-29T01:38:29;0.70;;;0.60;;
40997;SDS011;26740;45.944;12.480;2023-07-29T01:41:00;1.80;;;0.40;;
40997;SDS011;26740;45.944;12.480;2023-07-29T01:43:27;5.63;;;0.90;;
40997;SDS011;26740;45.944;12.480;2023-07-29T01:45:52;3.15;;;1.00;;
40997;SDS011;26740;45.944;12.480;2023-07-29T01:48:18;1.85;;;0.65;;
40997;SDS011;26740;45.944;12.480;2023-07-29T01:50:43;1.50;;;0.60;;
40997;SDS011;26740;45.944;12.480;2023-07-29T01:53:09;2.92;;;0.80;;
40997;SDS011;26740;45.944;12.480;2023-07-29T01:55:34;1.17;;;0.70;;
40997;SDS011;26740;45.944;12.480;2023-07-29T01:57:59;2.60;;;0.50;;
40997;SDS011;26740;45.944;12.480;2023-07-29T02:00:25;1.25;;;0.68;;
40997;SDS011;26740;45.944;12.480;2023-07-29T02:02:50;2.50;;;0.70;;
40997;SDS011;26740;45.944;12.480;2023-07-29T02:05:16;1.13;;;0.60;;
40997;SDS011;26740;45.944;12.480;2023-07-29T02:07:41;2.50;;;0.60;;
40997;SDS011;26740;45.944;12.480;2023-07-29T02:10:07;1.48;;;0.47;;
40997;SDS011;26740;45.944;12.480;2023-07-29T02:12:33;2.10;;;0.82;;
40997;SDS011;26740;45.944;12.480;2023-07-29T02:14:58;2.65;;;0.63;;
40997;SDS011;26740;45.944;12.480;2023-07-29T02:17:23;0.75;;;0.50;;
40997;SDS011;26740;45.944;12.480;2023-07-29T02:19:49;2.85;;;0.65;;
40997;SDS011;26740;45.944;12.480;2023-07-29T02:22:16;2.03;;;0.55;;
40997;SDS011;26740;45.944;12.480;2023-07-29T02:24:41;1.17;;;0.50;;
40997;SDS011;26740;45.944;12.480;2023-07-29T02:27:07;2.33;;;0.43;;
40997;SDS011;26740;45.944;12.480;2023-07-29T02:29:32;2.25;;;1.05;;
40997;SDS011;26740;45.944;12.480;2023-07-29T02:31:58;1.92;;;0.57;;
40997;SDS011;26740;45.944;12.480;2023-07-29T02:34:23;1.52;;;0.93;;
40997;SDS011;26740;45.944;12.480;2023-07-29T02:36:49;1.13;;;0.50;;
40997;SDS011;26740;45.944;12.480;2023-07-29T02:39:14;1.67;;;0.50;;
40997;SDS011;26740;45.944;12.480;2023-07-29T02:41:39;1.10;;;0.60;;
40997;SDS011;26740;45.944;12.480;2023-07-29T02:44:05;4.63;;;0.80;;
40997;SDS011;26740;45.944;12.480;2023-07-29T02:46:30;1.00;;;0.73;;
40997;SDS011;26740;45.944;12.480;2023-07-29T02:48:56;1.70;;;0.65;;
40997;SDS011;26740;45.944;12.480;2023-07-29T02:51:21;4.30;;;0.93;;
40997;SDS011;26740;45.944;12.480;2023-07-29T02:53:46;2.63;;;1.25;;
40997;SDS011;26740;45.944;12.480;2023-07-29T02:56:12;3.80;;;0.68;;
40997;SDS011;26740;45.944;12.480;2023-07-29T02:58:37;1.90;;;0.68;;
40997;SDS011;26740;45.944;12.480;2023-07-29T03:01:03;1.95;;;0.88;;
40997;SDS011;26740;45.944;12.480;2023-07-29T03:03:29;3.25;;;1.10;;
40997;SDS011;26740;45.944;12.480;2023-07-29T03:06:05;3.55;;;1.00;;
40997;SDS011;26740;45.944;12.480;2023-07-29T03:08:31;2.70;;;0.90;;
40997;SDS011;26740;45.944;12.480;2023-07-29T03:10:56;2.15;;;0.80;;
40997;SDS011;26740;45.944;12.480;2023-07-29T03:13:22;6.57;;;1.60;;
40997;SDS011;26740;45.944;12.480;2023-07-29T03:15:47;3.17;;;0.90;;
40997;SDS011;26740;45.944;12.480;2023-07-29T03:18:14;2.92;;;0.70;;
40997;SDS011;26740;45.944;12.480;2023-07-29T03:20:39;3.65;;;0.80;;
40997;SDS011;26740;45.944;12.480;2023-07-29T03:23:04;6.53;;;1.10;;
40997;SDS011;26740;45.944;12.480;2023-07-29T03:25:30;5.47;;;0.93;;
40997;SDS011;26740;45.944;12.480;2023-07-29T03:27:55;2.13;;;0.90;;
40997;SDS011;26740;45.944;12.480;2023-07-29T03:30:21;0.95;;;0.70;;
40997;SDS011;26740;45.944;12.480;2023-07-29T03:32:47;3.13;;;0.93;;
40997;SDS011;26740;45.944;12.480;2023-07-29T03:35:13;2.33;;;1.10;;
40997;SDS011;26740;45.944;12.480;2023-07-29T03:37:38;1.30;;;0.95;;
40997;SDS011;26740;45.944;12.480;2023-07-29T03:40:04;3.28;;;1.00;;
40997;SDS011;26740;45.944;12.480;2023-07-29T03:42:30;2.30;;;1.08;;
40997;SDS011;26740;45.944;12.480;2023-07-29T03:44:55;6.15;;;1.27;;
40997;SDS011;26740;45.944;12.480;2023-07-29T03:47:21;2.03;;;1.10;;
40997;SDS011;26740;45.944;12.480;2023-07-29T03:49:46;5.95;;;1.23;;
40997;SDS011;26740;45.944;12.480;2023-07-29T03:52:11;3.63;;;1.10;;
40997;SDS011;26740;45.944;12.480;2023-07-29T03:54:37;3.83;;;1.00;;
40997;SDS011;26740;45.944;12.480;2023-07-29T03:57:02;3.45;;;1.45;;
40997;SDS011;26740;45.944;12.480;2023-07-29T03:59:28;2.50;;;1.10;;
40997;SDS011;26740;45.944;12.480;2023-07-29T04:01:54;2.45;;;1.05;;
40997;SDS011;26740;45.944;12.480;2023-07-29T04:04:19;1.45;;;1.33;;
40997;SDS011;26740;45.944;12.480;2023-07-29T04:06:45;1.30;;;0.98;;
40997;SDS011;26740;45.944;12.480;2023-07-29T04:09:11;2.72;;;1.40;;
40997;SDS011;26740;45.944;12.480;2023-07-29T04:11:36;2.42;;;1.13;;
40997;SDS011;26740;45.944;12.480;2023-07-29T04:14:01;4.13;;;1.50;;
40997;SDS011;26740;45.944;12.480;2023-07-29T04:16:27;2.90;;;1.10;;
40997;SDS011;26740;45.944;12.480;2023-07-29T04:18:54;5.65;;;1.10;;
40997;SDS011;26740;45.944;12.480;2023-07-29T04:21:19;2.78;;;1.42;;
40997;SDS011;26740;45.944;12.480;2023-07-29T04:23:45;7.10;;;1.15;;
40997;SDS011;26740;45.944;12.480;2023-07-29T04:26:10;1.85;;;0.88;;
40997;SDS011;26740;45.944;12.480;2023-07-29T04:28:35;3.78;;;1.00;;
40997;SDS011;26740;45.944;12.480;2023-07-29T04:31:01;1.77;;;1.05;;
40997;SDS011;26740;45.944;12.480;2023-07-29T04:33:26;2.40;;;1.25;;
40997;SDS011;26740;45.944;12.480;2023-07-29T04:35:52;8.20;;;1.45;;
40997;SDS011;26740;45.944;12.480;2023-07-29T04:38:17;2.40;;;1.08;;
40997;SDS011;26740;45.944;12.480;2023-07-29T04:40:42;3.58;;;1.27;;
40997;SDS011;26740;45.944;12.480;2023-07-29T04:43:08;4.32;;;0.80;;
40997;SDS011;26740;45.944;12.480;2023-07-29T04:45:33;5.85;;;1.52;;
40997;SDS011;26740;45.944;12.480;2023-07-29T04:47:58;1.60;;;0.80;;
40997;SDS011;26740;45.944;12.480;2023-07-29T04:50:24;1.33;;;0.90;;
40997;SDS011;26740;45.944;12.480;2023-07-29T04:52:50;3.33;;;0.80;;
40997;SDS011;26740;45.944;12.480;2023-07-29T04:55:15;1.85;;;0.60;;
40997;SDS011;26740;45.944;12.480;2023-07-29T04:57:40;2.22;;;0.93;;
40997;SDS011;26740;45.944;12.480;2023-07-29T05:00:06;3.63;;;0.60;;
40997;SDS011;26740;45.944;12.480;2023-07-29T05:02:31;2.13;;;0.70;;
40997;SDS011;26740;45.944;12.480;2023-07-29T05:04:57;1.52;;;0.52;;
40997;SDS011;26740;45.944;12.480;2023-07-29T05:07:22;1.02;;;0.40;;
40997;SDS011;26740;45.944;12.480;2023-07-29T05:09:48;3.17;;;0.50;;
40997;SDS011;26740;45.944;12.480;2023-07-29T05:12:13;1.45;;;0.77;;
40997;SDS011;26740;45.944;12.480;2023-07-29T05:14:39;1.95;;;0.80;;
40997;SDS011;26740;45.944;12.480;2023-07-29T05:17:04;0.70;;;0.50;;
40997;SDS011;26740;45.944;12.480;2023-07-29T05:19:30;2.28;;;0.40;;
40997;SDS011;26740;45.944;12.480;2023-07-29T05:21:56;1.02;;;0.57;;
40997;SDS011;26740;45.944;12.480;2023-07-29T05:24:22;2.75;;;0.57;;
40997;SDS011;26740;45.944;12.480;2023-07-29T05:26:48;4.78;;;0.40;;
40997;SDS011;26740;45.944;12.480;2023-07-29T05:29:13;1.55;;;0.30;;
40997;SDS011;26740;45.944;12.480;2023-07-29T05:31:39;0.85;;;0.45;;
40997;SDS011;26740;45.944;12.480;2023-07-29T05:34:04;2.38;;;0.50;;
40997;SDS011;26740;45.944;12.480;2023-07-29T05:36:30;0.60;;;0.40;;
40997;SDS011;26740;45.944;12.480;2023-07-29T05:38:55;1.95;;;0.50;;
40997;SDS011;26740;45.944;12.480;2023-07-29T05:41:20;1.38;;;0.50;;
40997;SDS011;26740;45.944;12.480;2023-07-29T05:43:46;0.77;;;0.30;;
40997;SDS011;26740;45.944;12.480;2023-07-29T05:46:11;2.55;;;0.50;;
40997;SDS011;26740;45.944;12.480;2023-07-29T05:48:37;0.68;;;0.30;;
40997;SDS011;26740;45.944;12.480;2023-07-29T05:51:02;2.63;;;0.30;;
40997;SDS011;26740;45.944;12.480;2023-07-29T05:53:29;0.45;;;0.30;;
40997;SDS011;26740;45.944;12.480;2023-07-29T05:55:54;0.70;;;0.30;;
40997;SDS011;26740;45.944;12.480;2023-07-29T05:58:19;3.55;;;0.32;;
40997;SDS011;26740;45.944;12.480;2023-07-29T06:00:45;1.52;;;0.40;;
40997;SDS011;26740;45.944;12.480;2023-07-29T06:03:10;1.15;;;0.45;;
40997;SDS011;26740;45.944;12.480;2023-07-29T06:05:36;1.45;;;0.38;;
40997;SDS011;26740;45.944;12.480;2023-07-29T06:08:01;0.38;;;0.30;;
40997;SDS011;26740;45.944;12.480;2023-07-29T06:10:27;1.25;;;0.38;;
40997;SDS011;26740;45.944;12.480;2023-07-29T06:12:52;2.05;;;0.40;;
40997;SDS011;26740;45.944;12.480;2023-07-29T06:15:18;0.55;;;0.30;;
40997;SDS011;26740;45.944;12.480;2023-07-29T06:17:46;0.95;;;0.40;;
40997;SDS011;26740;45.944;12.480;2023-07-29T06:20:12;0.40;;;0.30;;
40997;SDS011;26740;45.944;12.480;2023-07-29T06:22:37;1.35;;;0.60;;
40997;SDS011;26740;45.944;12.480;2023-07-29T06:25:03;1.17;;;1.00;;
40997;SDS011;26740;45.944;12.480;2023-07-29T06:27:28;0.95;;;0.30;;
40997;SDS011;26740;45.944;12.480;2023-07-29T06:29:54;1.65;;;0.65;;
40997;SDS011;26740;45.944;12.480;2023-07-29T06:32:19;0.32;;;0.30;;
40997;SDS011;26740;45.944;12.480;2023-07-29T06:34:44;2.35;;;0.60;;
40997;SDS011;26740;45.944;12.480;2023-07-29T06:37:10;1.38;;;0.45;;
40997;SDS011;26740;45.944;12.480;2023-07-29T06:39:35;1.17;;;0.40;;
40997;SDS011;26740;45.944;12.480;2023-07-29T06:42:01;0.75;;;0.30;;
40997;SDS011;26740;45.944;12.480;2023-07-29T06:44:27;0.52;;;0.45;;
40997;SDS011;26740;45.944;12.480;2023-07-29T06:46:52;0.68;;;0.30;;
40997;SDS011;26740;45.944;12.480;2023-07-29T06:49:18;0.75;;;0.30;;
40997;SDS011;26740;45.944;12.480;2023-07-29T06:51:43;1.00;;;0.30;;
40997;SDS011;26740;45.944;12.480;2023-07-29T06:54:09;0.40;;;0.32;;
40997;SDS011;26740;45.944;12.480;2023-07-29T06:56:34;1.15;;;0.40;;
40997;SDS011;26740;45.944;12.480;2023-07-29T06:58:59;2.25;;;0.47;;
40997;SDS011;26740;45.944;12.480;2023-07-29T07:01:25;1.08;;;0.30;;
40997;SDS011;26740;45.944;12.480;2023-07-29T07:03:50;0.80;;;0.32;;
40997;SDS011;26740;45.944;12.480;2023-07-29T07:06:19;1.77;;;0.60;;
40997;SDS011;26740;45.944;12.480;2023-07-29T07:08:44;3.05;;;0.22;;
40997;SDS011;26740;45.944;12.480;2023-07-29T07:11:10;0.55;;;0.40;;
40997;SDS011;26740;45.944;12.480;2023-07-29T07:13:36;1.88;;;0.30;;
40997;SDS011;26740;45.944;12.480;2023-07-29T07:16:01;0.70;;;0.40;;
40997;SDS011;26740;45.944;12.480;2023-07-29T07:18:26;1.40;;;0.47;;
40997;SDS011;26740;45.944;12.480;2023-07-29T07:20:52;0.73;;;0.30;;
40997;SDS011;26740;45.944;12.480;2023-07-29T07:23:17;0.70;;;0.38;;
40997;SDS011;26740;45.944;12.480;2023-07-29T07:25:43;0.95;;;0.50;;
40997;SDS011;26740;45.944;12.480;2023-07-29T07:28:09;1.17;;;0.40;;
40997;SDS011;26740;45.944;12.480;2023-07-29T07:30:34;3.33;;;0.30;;
40997;SDS011;26740;45.944;12.480;2023-07-29T07:33:00;0.30;;;0.20;;
40997;SDS011;26740;45.944;12.480;2023-07-29T07:35:25;0.32;;;0.30;;
40997;SDS011;26740;45.944;12.480;2023-07-29T07:37:51;0.47;;;0.35;;
40997;SDS011;26740;45.944;12.480;2023-07-29T07:40:16;0.50;;;0.30;;
40997;SDS011;26740;45.944;12.480;2023-07-29T07:42:41;0.85;;;0.25;;
40997;SDS011;26740;45.944;12.480;2023-07-29T07:45:07;0.60;;;0.60;;
40997;SDS011;26740;45.944;12.480;2023-07-29T07:47:32;0.45;;;0.20;;
40997;SDS011;26740;45.944;12.480;2023-07-29T07:49:58;1.00;;;0.30;;
40997;SDS011;26740;45.944;12.480;2023-07-29T07:52:23;0.85;;;0.30;;
40997;SDS011;26740;45.944;12.480;2023-07-29T07:54:52;0.50;;;0.32;;
40997;SDS011;26740;45.944;12.480;2023-07-29T07:57:18;0.45;;;0.20;;
40997;SDS011;26740;45.944;12.480;2023-07-29T07:59:43;0.40;;;0.20;;
40997;SDS011;26740;45.944;12.480;2023-07-29T08:02:09;0.60;;;0.25;;
40997;SDS011;26740;45.944;12.480;2023-07-29T08:04:34;0.43;;;0.20;;
40997;SDS011;26740;45.944;12.480;2023-07-29T08:07:00;0.50;;;0.20;;
40997;SDS011;26740;45.944;12.480;2023-07-29T08:09:25;0.65;;;0.10;;
40997;SDS011;26740;45.944;12.480;2023-07-29T08:11:51;1.50;;;0.32;;
40997;SDS011;26740;45.944;12.480;2023-07-29T08:14:16;0.32;;;0.20;;
40997;SDS011;26740;45.944;12.480;2023-07-29T08:16:41;0.75;;;0.20;;
40997;SDS011;26740;45.944;12.480;2023-07-29T08:19:07;0.50;;;0.20;;
40997;SDS011;26740;45.944;12.480;2023-07-29T08:21:34;0.93;;;0.47;;
40997;SDS011;26740;45.944;12.480;2023-07-29T08:24:00;1.13;;;0.15;;
40997;SDS011;26740;45.944;12.480;2023-07-29T08:26:25;0.45;;;0.20;;
40997;SDS011;26740;45.944;12.480;2023-07-29T08:28:51;1.85;;;0.30;;
40997;SDS011;26740;45.944;12.480;2023-07-29T08:31:16;0.70;;;0.10;;
40997;SDS011;26740;45.944;12.480;2023-07-29T08:33:42;0.25;;;0.10;;
40997;SDS011;26740;45.944;12.480;2023-07-29T08:36:07;0.30;;;0.15;;
40997;SDS011;26740;45.944;12.480;2023-07-29T08:38:32;0.20;;;0.20;;
40997;SDS011;26740;45.944;12.480;2023-07-29T08:41:06;2.60;;;0.20;;
40997;SDS011;26740;45.944;12.480;2023-07-29T08:43:34;0.93;;;0.20;;
40997;SDS011;26740;45.944;12.480;2023-07-29T08:46:01;0.82;;;0.20;;
40997;SDS011;26740;45.944;12.480;2023-07-29T08:48:47;1.25;;;0.10;;
40997;SDS011;26740;45.944;12.480;2023-07-29T08:51:12;0.32;;;0.20;;
40997;SDS011;26740;45.944;12.480;2023-07-29T08:53:38;0.20;;;0.10;;
40997;SDS011;26740;45.944;12.480;2023-07-29T08:56:04;0.30;;;0.20;;
40997;SDS011;26740;45.944;12.480;2023-07-29T08:58:30;0.55;;;0.20;;
40997;SDS011;26740;45.944;12.480;2023-07-29T09:00:56;0.22;;;0.20;;
40997;SDS011;26740;45.944;12.480;2023-07-29T09:03:21;0.40;;;0.20;;
40997;SDS011;26740;45.944;12.480;2023-07-29T09:05:47;0.50;;;0.20;;
40997;SDS011;26740;45.944;12.480;2023-07-29T09:08:13;0.75;;;0.25;;
40997;SDS011;26740;45.944;12.480;2023-07-29T09:10:38;0.82;;;0.60;;
40997;SDS011;26740;45.944;12.480;2023-07-29T09:13:04;0.50;;;0.20;;
40997;SDS011;26740;45.944;12.480;2023-07-29T09:15:30;1.95;;;0.30;;
40997;SDS011;26740;45.944;12.480;2023-07-29T09:17:56;0.55;;;0.22;;
40997;SDS011;26740;45.944;12.480;2023-07-29T09:20:29;0.40;;;0.20;;
40997;SDS011;26740;45.944;12.480;2023-07-29T09:22:55;0.70;;;0.30;;
40997;SDS011;26740;45.944;12.480;2023-07-29T09:25:27;1.40;;;0.30;;
40997;SDS011;26740;45.944;12.480;2023-07-29T09:27:58;1.30;;;0.30;;
40997;SDS011;26740;45.944;12.480;2023-07-29T09:30:23;0.30;;;0.20;;
40997;SDS011;26740;45.944;12.480;2023-07-29T09:32:53;1.52;;;0.30;;
40997;SDS011;26740;45.944;12.480;2023-07-29T09:35:19;1.52;;;0.32;;
40997;SDS011;26740;45.944;12.480;2023-07-29T09:37:45;1.80;;;0.20;;
40997;SDS011;26740;45.944;12.480;2023-07-29T09:40:13;2.58;;;0.40;;
40997;SDS011;26740;45.944;12.480;2023-07-29T09:42:39;1.38;;;0.38;;
40997;SDS011;26740;45.944;12.480;2023-07-29T09:45:04;2.17;;;0.30;;
40997;SDS011;26740;45.944;12.480;2023-07-29T09:47:30;0.98;;;0.30;;
40997;SDS011;26740;45.944;12.480;2023-07-29T09:49:55;0.80;;;0.32;;
40997;SDS011;26740;45.944;12.480;2023-07-29T09:52:22;0.98;;;0.30;;
40997;SDS011;26740;45.944;12.480;2023-07-29T09:54:47;1.90;;;0.30;;
40997;SDS011;26740;45.944;12.480;2023-07-29T09:57:13;3.78;;;0.30;;
40997;SDS011;26740;45.944;12.480;2023-07-29T09:59:39;4.05;;;0.30;;
40997;SDS011;26740;45.944;12.480;2023-07-29T10:02:04;1.02;;;0.38;;
40997;SDS011;26740;45.944;12.480;2023-07-29T10:04:30;0.82;;;0.30;;
40997;SDS011;26740;45.944;12.480;2023-07-29T10:06:56;1.13;;;0.40;;
40997;SDS011;26740;45.944;12.480;2023-07-29T10:09:22;3.20;;;0.50;;
40997;SDS011;26740;45.944;12.480;2023-07-29T10:11:48;3.20;;;0.45;;
40997;SDS011;26740;45.944;12.480;2023-07-29T10:14:16;3.00;;;0.50;;
40997;SDS011;26740;45.944;12.480;2023-07-29T10:16:41;0.75;;;0.30;;
40997;SDS011;26740;45.944;12.480;2023-07-29T10:19:09;1.15;;;0.50;;
40997;SDS011;26740;45.944;12.480;2023-07-29T10:21:36;1.35;;;0.30;;
40997;SDS011;26740;45.944;12.480;2023-07-29T10:24:03;1.17;;;0.40;;
40997;SDS011;26740;45.944;12.480;2023-07-29T10:26:31;0.80;;;0.35;;
40997;SDS011;26740;45.944;12.480;2023-07-29T10:28:57;4.00;;;0.40;;
40997;SDS011;26740;45.944;12.480;2023-07-29T10:31:29;0.60;;;0.40;;
40997;SDS011;26740;45.944;12.480;2023-07-29T10:33:55;0.80;;;0.52;;
40997;SDS011;26740;45.944;12.480;2023-07-29T10:36:20;1.58;;;0.47;;
40997;SDS011;26740;45.944;12.480;2023-07-29T10:38:46;0.90;;;0.40;;
40997;SDS011;26740;45.944;12.480;2023-07-29T10:41:11;0.65;;;0.40;;
40997;SDS011;26740;45.944;12.480;2023-07-29T10:43:37;1.38;;;0.60;;
40997;SDS011;26740;45.944;12.480;2023-07-29T10:46:15;1.65;;;0.82;;
40997;SDS011;26740;45.944;12.480;2023-07-29T10:48:44;1.83;;;0.60;;
40997;SDS011;26740;45.944;12.480;2023-07-29T10:51:23;1.52;;;0.77;;
40997;SDS011;26740;45.944;12.480;2023-07-29T10:53:54;1.17;;;0.40;;
40997;SDS011;26740;45.944;12.480;2023-07-29T11:01:41;3.72;;;0.80;;
40997;SDS011;26740;45.944;12.480;2023-07-29T11:04:22;1.35;;;0.68;;
40997;SDS011;26740;45.944;12.480;2023-07-29T11:14:57;1.63;;;0.52;;
40997;SDS011;26740;45.944;12.480;2023-07-29T11:17:22;4.50;;;0.85;;
40997;SDS011;26740;45.944;12.480;2023-07-29T11:19:48;1.40;;;0.45;;
40997;SDS011;26740;45.944;12.480;2023-07-29T11:22:15;1.42;;;0.50;;
40997;SDS011;26740;45.944;12.480;2023-07-29T11:24:43;0.95;;;0.50;;
40997;SDS011;26740;45.944;12.480;2023-07-29T11:27:12;2.15;;;0.38;;
40997;SDS011;26740;45.944;12.480;2023-07-29T11:29:37;0.65;;;0.20;;
40997;SDS011;26740;45.944;12.480;2023-07-29T11:32:03;1.00;;;0.30;;
40997;SDS011;26740;45.944;12.480;2023-07-29T11:34:32;0.98;;;0.40;;
40997;SDS011;26740;45.944;12.480;2023-07-29T11:36:57;3.72;;;0.30;;
40997;SDS011;26740;45.944;12.480;2023-07-29T11:39:22;1.27;;;0.32;;
40997;SDS011;26740;45.944;12.480;2023-07-29T11:41:48;0.40;;;0.30;;
40997;SDS011;26740;45.944;12.480;2023-07-29T11:44:17;2.67;;;0.50;;
40997;SDS011;26740;45.944;12.480;2023-07-29T11:46:42;2.47;;;0.50;;
40997;SDS011;26740;45.944;12.480;2023-07-29T11:49:08;2.97;;;0.47;;
40997;SDS011;26740;45.944;12.480;2023-07-29T11:51:33;0.32;;;0.30;;
40997;SDS011;26740;45.944;12.480;2023-07-29T11:53:59;0.60;;;0.40;;
40997;SDS011;26740;45.944;12.480;2023-07-29T11:56:25;0.93;;;0.50;;
40997;SDS011;26740;45.944;12.480;2023-07-29T11:58:50;1.83;;;0.50;;
40997;SDS011;26740;45.944;12.480;2023-07-29T12:01:27;0.85;;;0.45;;
40997;SDS011;26740;45.944;12.480;2023-07-29T12:03:53;1.75;;;0.47;;
40997;SDS011;26740;45.944;12.480;2023-07-29T12:06:19;6.43;;;0.90;;
40997;SDS011;26740;45.944;12.480;2023-07-29T12:08:44;0.88;;;0.50;;
40997;SDS011;26740;45.944;12.480;2023-07-29T12:11:10;2.22;;;0.55;;
40997;SDS011;26740;45.944;12.480;2023-07-29T12:13:38;0.68;;;0.38;;
40997;SDS011;26740;45.944;12.480;2023-07-29T12:16:04;1.58;;;0.45;;
40997;SDS011;26740;45.944;12.480;2023-07-29T12:18:30;1.15;;;0.40;;
40997;SDS011;26740;45.944;12.480;2023-07-29T12:20:56;0.88;;;0.40;;
40997;SDS011;26740;45.944;12.480;2023-07-29T12:23:24;1.20;;;0.63;;
40997;SDS011;26740;45.944;12.480;2023-07-29T12:25:50;0.82;;;0.40;;
40997;SDS011;26740;45.944;12.480;2023-07-29T12:28:16;2.97;;;0.50;;
40997;SDS011;26740;45.944;12.480;2023-07-29T12:30:42;1.13;;;0.43;;
40997;SDS011;26740;45.944;12.480;2023-07-29T12:33:08;1.33;;;0.50;;
40997;SDS011;26740;45.944;12.480;2023-07-29T12:35:35;2.42;;;0.50;;
40997;SDS011;26740;45.944;12.480;2023-07-29T12:38:00;0.88;;;0.50;;
40997;SDS011;26740;45.944;12.480;2023-07-29T12:40:26;1.50;;;0.40;;
40997;SDS011;26740;45.944;12.480;2023-07-29T12:42:51;1.52;;;0.40;;
40997;SDS011;26740;45.944;12.480;2023-07-29T12:45:17;1.52;;;0.55;;
40997;SDS011;26740;45.944;12.480;2023-07-29T12:47:43;1.02;;;0.60;;
40997;SDS011;26740;45.944;12.480;2023-07-29T12:50:08;1.88;;;0.65;;
40997;SDS011;26740;45.944;12.480;2023-07-29T12:52:34;2.28;;;0.70;;
40997;SDS011;26740;45.944;12.480;2023-07-29T12:54:59;2.75;;;0.60;;
40997;SDS011;26740;45.944;12.480;2023-07-29T12:57:24;0.68;;;0.32;;
40997;SDS011;26740;45.944;12.480;2023-07-29T12:59:50;4.00;;;0.60;;
40997;SDS011;26740;45.944;12.480;2023-07-29T13:02:15;1.15;;;0.60;;
40997;SDS011;26740;45.944;12.480;2023-07-29T13:04:41;1.70;;;0.60;;
40997;SDS011;26740;45.944;12.480;2023-07-29T13:07:06;3.38;;;0.57;;
40997;SDS011;26740;45.944;12.480;2023-07-29T13:09:31;2.00;;;0.50;;
40997;SDS011;26740;45.944;12.480;2023-07-29T13:11:57;0.65;;;0.30;;
40997;SDS011;26740;45.944;12.480;2023-07-29T13:14:22;1.95;;;0.60;;
40997;SDS011;26740;45.944;12.480;2023-07-29T13:16:48;1.17;;;0.40;;
40997;SDS011;26740;45.944;12.480;2023-07-29T13:19:13;1.25;;;0.50;;
40997;SDS011;26740;45.944;12.480;2023-07-29T13:21:39;0.90;;;0.50;;
40997;SDS011;26740;45.944;12.480;2023-07-29T13:24:04;1.35;;;0.70;;
40997;SDS011;26740;45.944;12.480;2023-07-29T13:26:29;2.72;;;0.80;;
40997;SDS011;26740;45.944;12.480;2023-07-29T13:28:55;1.48;;;0.50;;
40997;SDS011;26740;45.944;12.480;2023-07-29T13:31:21;0.80;;;0.45;;
40997;SDS011;26740;45.944;12.480;2023-07-29T13:33:46;1.20;;;0.47;;
40997;SDS011;26740;45.944;12.480;2023-07-29T13:36:11;0.95;;;0.57;;
40997;SDS011;26740;45.944;12.480;2023-07-29T13:38:37;1.02;;;0.50;;
40997;SDS011;26740;45.944;12.480;2023-07-29T13:41:02;1.33;;;0.47;;
40997;SDS011;26740;45.944;12.480;2023-07-29T13:43:28;1.02;;;0.40;;
40997;SDS011;26740;45.944;12.480;2023-07-29T13:45:53;1.83;;;0.50;;
40997;SDS011;26740;45.944;12.480;2023-07-29T13:48:19;0.93;;;0.38;;
40997;SDS011;26740;45.944;12.480;2023-07-29T13:50:45;1.33;;;0.40;;
40997;SDS011;26740;45.944;12.480;2023-07-29T13:53:10;0.88;;;0.40;;
40997;SDS011;26740;45.944;12.480;2023-07-29T13:55:36;1.13;;;0.40;;
40997;SDS011;26740;45.944;12.480;2023-07-29T13:58:01;2.72;;;0.43;;
40997;SDS011;26740;45.944;12.480;2023-07-29T14:00:27;1.38;;;0.40;;
40997;SDS011;26740;45.944;12.480;2023-07-29T14:02:52;0.82;;;0.60;;
40997;SDS011;26740;45.944;12.480;2023-07-29T14:05:17;1.08;;;0.50;;
40997;SDS011;26740;45.944;12.480;2023-07-29T14:07:43;1.15;;;0.50;;
40997;SDS011;26740;45.944;12.480;2023-07-29T14:10:08;0.82;;;0.40;;
40997;SDS011;26740;45.944;12.480;2023-07-29T14:12:33;1.65;;;0.50;;
40997;SDS011;26740;45.944;12.480;2023-07-29T14:14:59;2.03;;;0.55;;
40997;SDS011;26740;45.944;12.480;2023-07-29T14:17:24;1.35;;;0.55;;
40997;SDS011;26740;45.944;12.480;2023-07-29T14:19:50;0.93;;;0.52;;
40997;SDS011;26740;45.944;12.480;2023-07-29T14:22:15;1.25;;;0.50;;
40997;SDS011;26740;45.944;12.480;2023-07-29T14:24:40;4.22;;;0.65;;
40997;SDS011;26740;45.944;12.480;2023-07-29T14:27:06;3.15;;;0.52;;
40997;SDS011;26740;45.944;12.480;2023-07-29T14:29:31;2.53;;;0.60;;
40997;SDS011;26740;45.944;12.480;2023-07-29T14:31:57;1.70;;;0.82;;
40997;SDS011;26740;45.944;12.480;2023-07-29T14:34:22;5.65;;;0.77;;
40997;SDS011;26740;45.944;12.480;2023-07-29T14:36:48;6.00;;;0.70;;
40997;SDS011;26740;45.944;12.480;2023-07-29T14:39:13;5.03;;;0.60;;
40997;SDS011;26740;45.944;12.480;2023-07-29T14:41:38;1.85;;;0.63;;
40997;SDS011;26740;45.944;12.480;2023-07-29T14:44:04;1.20;;;0.70;;